Weather at Lafayette Heliport [CLOSED]

Public forecast

Using degrees Fahrenheit for public forecast. Weather courtesy of forecast.io.

Closest aviation weather report (METAR) to Lafayette Heliport

Closest report is Buchanan Field, 7.0 nm (12.9 km) NNE.

2024/05/30 17:53 (retrieved 48 minutes ago)

KCCR 301753Z VRB04KT 10SM CLR 26/09 A2997 RMK AO2 SLP135 T02560094 10256 20133 58009

Closest aviation forecast (TAF) to Lafayette Heliport

Closest forecast is Metropolitan Oakland International Airport, 11.0 nm (20.5 km) SSW.

2024/05/30 18:22 (retrieved 19 minutes ago)

TAF KOAK 301720Z 3018/3124 30004KT P6SM SKC FM302000 28013KT P6SM SKC FM310400 VRB04KT P6SM SKC FM312000 27011KT P6SM SKC